sensor_id;sensor_type;location;lat;lon;timestamp;pressure;altitude;pressure_sealevel;temperature;humidity
20037;BME280;10179;42.640;23.312;2022-11-22T00:02:24;93148.50;;;8.93;58.66
20037;BME280;10179;42.640;23.312;2022-11-22T00:04:49;92974.63;;;7.88;58.45
20037;BME280;10179;42.640;23.312;2022-11-22T00:07:14;93104.56;;;8.71;58.55
20037;BME280;10179;42.640;23.312;2022-11-22T00:09:40;93141.78;;;8.97;58.60
20037;BME280;10179;42.640;23.312;2022-11-22T00:12:05;92788.59;;;6.67;58.39
20037;BME280;10179;42.640;23.312;2022-11-22T00:14:31;93139.19;;;8.97;58.35
20037;BME280;10179;42.640;23.312;2022-11-22T00:16:56;93033.25;;;8.22;58.46
20037;BME280;10179;42.640;23.312;2022-11-22T00:19:21;93032.13;;;8.18;58.06
20037;BME280;10179;42.640;23.312;2022-11-22T00:21:47;93155.34;;;8.94;57.93
20037;BME280;10179;42.640;23.312;2022-11-22T00:24:12;93125.50;;;8.71;57.54
20037;BME280;10179;42.640;23.312;2022-11-22T00:26:38;93153.16;;;8.91;58.12
20037;BME280;10179;42.640;23.312;2022-11-22T00:29:03;92990.09;;;7.89;58.25
20037;BME280;10179;42.640;23.312;2022-11-22T00:31:29;93038.47;;;8.22;58.38
20037;BME280;10179;42.640;23.312;2022-11-22T00:33:54;93120.50;;;8.81;58.47
20037;BME280;10179;42.640;23.312;2022-11-22T00:36:19;93162.41;;;9.05;58.25
20037;BME280;10179;42.640;23.312;2022-11-22T00:38:45;92925.25;;;7.56;58.09
20037;BME280;10179;42.640;23.312;2022-11-22T00:41:10;93165.69;;;9.12;58.48
20037;BME280;10179;42.640;23.312;2022-11-22T00:43:36;93159.47;;;9.13;58.22
20037;BME280;10179;42.640;23.312;2022-11-22T00:46:01;93020.53;;;8.26;58.36
20037;BME280;10179;42.640;23.312;2022-11-22T00:48:26;93130.53;;;8.96;58.47
20037;BME280;10179;42.640;23.312;2022-11-22T00:50:52;93173.59;;;9.24;58.43
20037;BME280;10179;42.640;23.312;2022-11-22T00:53:17;93164.44;;;9.26;58.45
20037;BME280;10179;42.640;23.312;2022-11-22T00:55:46;93134.50;;;9.11;58.52
20037;BME280;10179;42.640;23.312;2022-11-22T00:58:11;93110.03;;;8.93;58.20
20037;BME280;10179;42.640;23.312;2022-11-22T01:00:37;93149.22;;;9.23;58.34
20037;BME280;10179;42.640;23.312;2022-11-22T01:03:02;93007.44;;;8.26;58.35
20037;BME280;10179;42.640;23.312;2022-11-22T01:05:28;93115.16;;;9.00;58.17
20037;BME280;10179;42.640;23.312;2022-11-22T01:07:53;93142.25;;;9.05;58.20
20037;BME280;10179;42.640;23.312;2022-11-22T01:10:18;93118.22;;;8.97;58.42
20037;BME280;10179;42.640;23.312;2022-11-22T01:12:44;93148.53;;;9.16;58.43
20037;BME280;10179;42.640;23.312;2022-11-22T01:15:10;93157.41;;;9.15;58.31
20037;BME280;10179;42.640;23.312;2022-11-22T01:17:35;93152.59;;;9.12;58.39
20037;BME280;10179;42.640;23.312;2022-11-22T01:20:00;93120.75;;;8.92;58.50
20037;BME280;10179;42.640;23.312;2022-11-22T01:22:26;93148.84;;;8.96;58.45
20037;BME280;10179;42.640;23.312;2022-11-22T01:24:51;93147.59;;;8.75;58.43
20037;BME280;10179;42.640;23.312;2022-11-22T01:27:16;93033.16;;;8.29;58.47
20037;BME280;10179;42.640;23.312;2022-11-22T01:29:42;93151.94;;;9.05;58.56
20037;BME280;10179;42.640;23.312;2022-11-22T01:32:07;93143.50;;;9.03;58.53
20037;BME280;10179;42.640;23.312;2022-11-22T01:34:33;93088.63;;;8.61;58.56
20037;BME280;10179;42.640;23.312;2022-11-22T01:36:58;93149.19;;;9.00;58.80
20037;BME280;10179;42.640;23.312;2022-11-22T01:39:23;93151.25;;;8.98;58.46
20037;BME280;10179;42.640;23.312;2022-11-22T01:41:49;92898.44;;;7.37;58.31
20037;BME280;10179;42.640;23.312;2022-11-22T01:44:19;93082.69;;;8.54;58.60
20037;BME280;10179;42.640;23.312;2022-11-22T01:46:48;93059.66;;;8.32;58.88
20037;BME280;10179;42.640;23.312;2022-11-22T01:49:21;93146.94;;;8.92;59.04
20037;BME280;10179;42.640;23.312;2022-11-22T01:51:50;93110.00;;;8.70;58.76
20037;BME280;10179;42.640;23.312;2022-11-22T01:54:21;93027.78;;;8.12;58.94
20037;BME280;10179;42.640;23.312;2022-11-22T01:56:54;93019.34;;;8.10;58.81
20037;BME280;10179;42.640;23.312;2022-11-22T01:59:25;92974.84;;;7.75;58.66
20037;BME280;10179;42.640;23.312;2022-11-22T02:01:52;93143.94;;;8.76;58.84
20037;BME280;10179;42.640;23.312;2022-11-22T02:04:19;93164.53;;;8.61;59.09
20037;BME280;10179;42.640;23.312;2022-11-22T02:09:33;93161.00;;;8.67;58.93
20037;BME280;10179;42.640;23.312;2022-11-22T02:12:01;93147.34;;;8.65;59.14
20037;BME280;10179;42.640;23.312;2022-11-22T02:14:28;93148.22;;;8.59;59.08
20037;BME280;10179;42.640;23.312;2022-11-22T02:16:55;93020.81;;;7.64;58.80
20037;BME280;10179;42.640;23.312;2022-11-22T02:19:47;93157.13;;;8.58;59.40
20037;BME280;10179;42.640;23.312;2022-11-22T02:26:01;93153.16;;;8.37;59.01
20037;BME280;10179;42.640;23.312;2022-11-22T02:28:05;93114.53;;;8.09;59.23
20037;BME280;10179;42.640;23.312;2022-11-22T02:30:31;93153.22;;;8.19;59.39
20037;BME280;10179;42.640;23.312;2022-11-22T02:32:56;93144.00;;;8.16;59.53
20037;BME280;10179;42.640;23.312;2022-11-22T02:35:24;93161.72;;;8.14;59.46
20037;BME280;10179;42.640;23.312;2022-11-22T02:37:58;93193.63;;;8.04;60.09
20037;BME280;10179;42.640;23.312;2022-11-22T02:40:25;93121.81;;;7.88;59.91
20037;BME280;10179;42.640;23.312;2022-11-22T02:42:57;93140.78;;;8.14;60.00
20037;BME280;10179;42.640;23.312;2022-11-22T02:45:24;93072.22;;;7.70;60.12
20037;BME280;10179;42.640;23.312;2022-11-22T02:47:50;93066.28;;;7.63;60.17
20037;BME280;10179;42.640;23.312;2022-11-22T02:50:15;93104.13;;;7.91;60.10
20037;BME280;10179;42.640;23.312;2022-11-22T02:52:41;93135.19;;;8.10;59.77
20037;BME280;10179;42.640;23.312;2022-11-22T02:55:06;93048.84;;;7.57;59.87
20037;BME280;10179;42.640;23.312;2022-11-22T02:57:32;93096.56;;;7.82;60.02
20037;BME280;10179;42.640;23.312;2022-11-22T02:59:57;93099.75;;;7.84;59.76
20037;BME280;10179;42.640;23.312;2022-11-22T03:02:23;93110.22;;;7.84;59.73
20037;BME280;10179;42.640;23.312;2022-11-22T03:04:48;93110.13;;;7.91;59.96
20037;BME280;10179;42.640;23.312;2022-11-22T03:07:13;93008.44;;;7.11;60.08
20037;BME280;10179;42.640;23.312;2022-11-22T03:09:39;92977.00;;;7.06;59.88
20037;BME280;10179;42.640;23.312;2022-11-22T03:12:04;93053.97;;;7.52;59.58
20037;BME280;10179;42.640;23.312;2022-11-22T03:14:30;93121.38;;;7.92;59.39
20037;BME280;10179;42.640;23.312;2022-11-22T03:16:55;92978.97;;;6.92;59.66
20037;BME280;10179;42.640;23.312;2022-11-22T03:19:21;92936.66;;;6.53;59.69
20037;BME280;10179;42.640;23.312;2022-11-22T03:21:46;93043.84;;;7.07;59.72
20037;BME280;10179;42.640;23.312;2022-11-22T03:24:12;93132.91;;;7.72;59.67
20037;BME280;10179;42.640;23.312;2022-11-22T03:26:37;93133.34;;;7.69;60.00
20037;BME280;10179;42.640;23.312;2022-11-22T03:29:03;93134.78;;;7.65;60.10
20037;BME280;10179;42.640;23.312;2022-11-22T03:31:28;93001.00;;;6.78;60.10
20037;BME280;10179;42.640;23.312;2022-11-22T03:33:54;93122.16;;;7.62;60.05
20037;BME280;10179;42.640;23.312;2022-11-22T03:36:21;93096.53;;;7.15;59.97
20037;BME280;10179;42.640;23.312;2022-11-22T03:38:46;93105.78;;;7.55;60.40
20037;BME280;10179;42.640;23.312;2022-11-22T03:41:12;93022.06;;;6.94;60.03
20037;BME280;10179;42.640;23.312;2022-11-22T03:43:37;93118.53;;;7.63;60.32
20037;BME280;10179;42.640;23.312;2022-11-22T03:46:03;93002.50;;;6.85;60.36
20037;BME280;10179;42.640;23.312;2022-11-22T03:48:29;93059.19;;;7.15;60.28
20037;BME280;10179;42.640;23.312;2022-11-22T03:51:02;92782.28;;;5.53;60.33
20037;BME280;10179;42.640;23.312;2022-11-22T03:53:28;93060.09;;;7.27;60.20
20037;BME280;10179;42.640;23.312;2022-11-22T03:55:53;93130.13;;;7.67;59.80
20037;BME280;10179;42.640;23.312;2022-11-22T03:58:18;93110.28;;;7.48;59.55
20037;BME280;10179;42.640;23.312;2022-11-22T04:00:44;93117.53;;;7.46;60.03
20037;BME280;10179;42.640;23.312;2022-11-22T04:03:09;93143.94;;;7.56;59.96
20037;BME280;10179;42.640;23.312;2022-11-22T04:05:34;93094.47;;;7.24;60.19
20037;BME280;10179;42.640;23.312;2022-11-22T04:08:00;93123.41;;;7.41;60.15
20037;BME280;10179;42.640;23.312;2022-11-22T04:10:25;93075.00;;;7.02;60.17
20037;BME280;10179;42.640;23.312;2022-11-22T04:12:51;93063.41;;;6.98;59.99
20037;BME280;10179;42.640;23.312;2022-11-22T04:15:20;92982.50;;;6.42;59.58
20037;BME280;10179;42.640;23.312;2022-11-22T04:17:45;93091.50;;;7.02;59.87
20037;BME280;10179;42.640;23.312;2022-11-22T04:20:25;93151.78;;;7.56;59.87
20037;BME280;10179;42.640;23.312;2022-11-22T04:23:18;93163.69;;;7.52;59.89
20037;BME280;10179;42.640;23.312;2022-11-22T04:25:48;93147.41;;;7.31;59.53
20037;BME280;10179;42.640;23.312;2022-11-22T04:28:16;93162.38;;;7.43;59.56
20037;BME280;10179;42.640;23.312;2022-11-22T04:30:42;93164.38;;;7.40;59.72
20037;BME280;10179;42.640;23.312;2022-11-22T04:33:27;93068.75;;;6.84;59.78
20037;BME280;10179;42.640;23.312;2022-11-22T04:35:53;93106.97;;;6.97;59.55
20037;BME280;10179;42.640;23.312;2022-11-22T04:38:20;93177.44;;;7.40;59.51
20037;BME280;10179;42.640;23.312;2022-11-22T04:40:46;93175.06;;;7.39;59.49
20037;BME280;10179;42.640;23.312;2022-11-22T04:43:23;93098.78;;;6.93;59.39
20037;BME280;10179;42.640;23.312;2022-11-22T04:46:08;92982.00;;;6.09;59.39
20037;BME280;10179;42.640;23.312;2022-11-22T04:48:34;93188.78;;;7.34;59.31
20037;BME280;10179;42.640;23.312;2022-11-22T04:50:59;93208.28;;;7.32;59.08
20037;BME280;10179;42.640;23.312;2022-11-22T04:53:43;92843.31;;;5.07;58.94
20037;BME280;10179;42.640;23.312;2022-11-22T04:56:09;93099.09;;;6.60;59.32
20037;BME280;10179;42.640;23.312;2022-11-22T04:58:35;91864.63;;;-1.32;58.64
20037;BME280;10179;42.640;23.312;2022-11-22T05:01:00;93133.38;;;6.89;59.13
20037;BME280;10179;42.640;23.312;2022-11-22T05:03:25;93187.50;;;7.18;59.13
20037;BME280;10179;42.640;23.312;2022-11-22T05:05:51;93202.84;;;7.33;59.06
20037;BME280;10179;42.640;23.312;2022-11-22T05:08:16;93212.50;;;7.33;58.69
20037;BME280;10179;42.640;23.312;2022-11-22T05:10:42;93199.66;;;7.31;59.04
20037;BME280;10179;42.640;23.312;2022-11-22T05:13:35;93188.19;;;7.32;58.84
20037;BME280;10179;42.640;23.312;2022-11-22T05:16:01;93142.50;;;6.98;58.82
20037;BME280;10179;42.640;23.312;2022-11-22T05:18:28;93162.13;;;7.07;58.99
20037;BME280;10179;42.640;23.312;2022-11-22T05:20:54;93200.09;;;7.28;58.96
20037;BME280;10179;42.640;23.312;2022-11-22T05:23:20;93202.47;;;7.30;59.13
20037;BME280;10179;42.640;23.312;2022-11-22T05:26:05;93070.28;;;6.49;58.87
20037;BME280;10179;42.640;23.312;2022-11-22T05:28:33;93196.25;;;7.31;59.10
20037;BME280;10179;42.640;23.312;2022-11-22T05:31:04;93119.16;;;6.60;58.71
20037;BME280;10179;42.640;23.312;2022-11-22T05:33:29;92779.81;;;4.58;58.63
20037;BME280;10179;42.640;23.312;2022-11-22T05:35:56;93198.50;;;7.27;58.84
20037;BME280;10179;42.640;23.312;2022-11-22T05:38:23;93161.31;;;7.07;58.66
20037;BME280;10179;42.640;23.312;2022-11-22T05:40:49;93151.72;;;7.01;58.91
20037;BME280;10179;42.640;23.312;2022-11-22T05:43:14;93123.78;;;6.83;58.64
20037;BME280;10179;42.640;23.312;2022-11-22T05:45:39;93204.28;;;7.29;58.44
20037;BME280;10179;42.640;23.312;2022-11-22T05:48:05;93116.44;;;6.73;58.52
20037;BME280;10179;42.640;23.312;2022-11-22T05:50:30;93156.59;;;6.97;58.54
20037;BME280;10179;42.640;23.312;2022-11-22T05:52:59;93191.44;;;7.28;58.75
20037;BME280;10179;42.640;23.312;2022-11-22T05:55:25;93199.59;;;7.38;58.50
20037;BME280;10179;42.640;23.312;2022-11-22T05:57:50;92882.75;;;5.35;58.79
20037;BME280;10179;42.640;23.312;2022-11-22T06:00:16;93132.78;;;7.05;58.60
20037;BME280;10179;42.640;23.312;2022-11-22T06:02:42;93130.84;;;7.01;58.59
20037;BME280;10179;42.640;23.312;2022-11-22T06:05:07;93155.75;;;7.22;59.02
20037;BME280;10179;42.640;23.312;2022-11-22T06:07:33;93209.47;;;7.54;58.41
20037;BME280;10179;42.640;23.312;2022-11-22T06:09:58;93094.84;;;6.84;58.90
20037;BME280;10179;42.640;23.312;2022-11-22T06:12:23;93172.22;;;7.40;58.71
20037;BME280;10179;42.640;23.312;2022-11-22T06:14:49;93188.19;;;7.51;59.01
20037;BME280;10179;42.640;23.312;2022-11-22T06:17:14;93209.97;;;7.81;59.11
20037;BME280;10179;42.640;23.312;2022-11-22T06:19:40;93056.28;;;6.86;59.01
20037;BME280;10179;42.640;23.312;2022-11-22T06:22:05;93177.59;;;7.64;59.18
20037;BME280;10179;42.640;23.312;2022-11-22T06:24:30;93184.56;;;7.88;59.27
20037;BME280;10179;42.640;23.312;2022-11-22T06:26:56;93094.13;;;7.51;59.18
20037;BME280;10179;42.640;23.312;2022-11-22T06:29:21;93178.00;;;8.16;59.00
20037;BME280;10179;42.640;23.312;2022-11-22T06:31:47;93199.78;;;8.58;58.89
20037;BME280;10179;42.640;23.312;2022-11-22T06:34:12;93199.06;;;8.81;58.86
20037;BME280;10179;42.640;23.312;2022-11-22T06:36:38;93206.38;;;9.03;58.64
20037;BME280;10179;42.640;23.312;2022-11-22T06:39:04;93120.97;;;8.78;58.48
20037;BME280;10179;42.640;23.312;2022-11-22T06:41:33;93203.56;;;9.51;58.07
20037;BME280;10179;42.640;23.312;2022-11-22T06:44:06;93212.75;;;9.77;57.47
20037;BME280;10179;42.640;23.312;2022-11-22T06:46:32;93213.97;;;9.98;56.94
20037;BME280;10179;42.640;23.312;2022-11-22T06:48:57;93219.41;;;10.09;55.36
20037;BME280;10179;42.640;23.312;2022-11-22T06:51:25;93214.50;;;10.12;54.25
20037;BME280;10179;42.640;23.312;2022-11-22T06:53:51;93226.69;;;10.18;53.75
20037;BME280;10179;42.640;23.312;2022-11-22T06:56:22;93170.06;;;9.94;53.66
20037;BME280;10179;42.640;23.312;2022-11-22T06:58:49;93092.13;;;9.37;53.22
20037;BME280;10179;42.640;23.312;2022-11-22T07:01:17;93216.25;;;10.47;53.21
20037;BME280;10179;42.640;23.312;2022-11-22T07:03:43;93226.16;;;10.73;52.44
20037;BME280;10179;42.640;23.312;2022-11-22T07:06:11;93189.19;;;10.75;53.00
20037;BME280;10179;42.640;23.312;2022-11-22T07:08:37;93229.81;;;11.35;53.40
20037;BME280;10179;42.640;23.312;2022-11-22T07:11:04;93213.03;;;11.75;52.31
20037;BME280;10179;42.640;23.312;2022-11-22T07:13:30;93213.47;;;12.05;50.64
20037;BME280;10179;42.640;23.312;2022-11-22T07:15:57;93193.03;;;12.12;49.38
20037;BME280;10179;42.640;23.312;2022-11-22T07:18:23;93167.88;;;12.22;49.11
20037;BME280;10179;42.640;23.312;2022-11-22T07:20:49;93071.25;;;11.73;47.08
20037;BME280;10179;42.640;23.312;2022-11-22T07:23:14;93130.34;;;12.09;46.82
20037;BME280;10179;42.640;23.312;2022-11-22T07:25:46;93215.00;;;12.72;46.40
20037;BME280;10179;42.640;23.312;2022-11-22T07:28:13;93136.34;;;12.05;45.96
20037;BME280;10179;42.640;23.312;2022-11-22T07:30:39;93220.66;;;12.59;45.93
20037;BME280;10179;42.640;23.312;2022-11-22T07:33:05;93194.97;;;12.44;46.40
20037;BME280;10179;42.640;23.312;2022-11-22T07:35:30;93156.34;;;12.28;45.94
20037;BME280;10179;42.640;23.312;2022-11-22T07:37:56;93204.06;;;12.58;46.67
20037;BME280;10179;42.640;23.312;2022-11-22T07:40:22;93189.34;;;12.62;46.68
20037;BME280;10179;42.640;23.312;2022-11-22T07:42:47;93161.34;;;12.56;45.53
20037;BME280;10179;42.640;23.312;2022-11-22T07:45:13;93181.22;;;12.64;44.80
20037;BME280;10179;42.640;23.312;2022-11-22T07:47:38;93181.78;;;12.44;44.94
20037;BME280;10179;42.640;23.312;2022-11-22T07:50:04;93128.41;;;11.83;45.51
20037;BME280;10179;42.640;23.312;2022-11-22T07:52:29;93134.38;;;11.73;46.10
20037;BME280;10179;42.640;23.312;2022-11-22T07:54:55;93130.72;;;11.57;45.85
20037;BME280;10179;42.640;23.312;2022-11-22T07:57:20;93199.69;;;11.98;46.00
20037;BME280;10179;42.640;23.312;2022-11-22T07:59:46;93164.00;;;11.68;46.14
20037;BME280;10179;42.640;23.312;2022-11-22T08:02:11;93209.19;;;11.82;46.25
20037;BME280;10179;42.640;23.312;2022-11-22T08:04:37;93163.47;;;11.28;46.55
20037;BME280;10179;42.640;23.312;2022-11-22T08:07:02;93209.16;;;11.60;46.62
20037;BME280;10179;42.640;23.312;2022-11-22T08:09:28;93178.34;;;11.39;46.98
20037;BME280;10179;42.640;23.312;2022-11-22T08:11:53;93200.25;;;11.44;47.21
20037;BME280;10179;42.640;23.312;2022-11-22T08:14:19;93167.53;;;11.18;47.27
20037;BME280;10179;42.640;23.312;2022-11-22T08:16:44;93105.66;;;10.77;47.19
20037;BME280;10179;42.640;23.312;2022-11-22T08:19:10;93178.44;;;11.10;47.17
20037;BME280;10179;42.640;23.312;2022-11-22T08:21:40;93214.94;;;11.23;47.56
20037;BME280;10179;42.640;23.312;2022-11-22T08:24:05;93210.16;;;11.20;47.56
20037;BME280;10179;42.640;23.312;2022-11-22T08:26:32;93171.34;;;11.11;47.59
20037;BME280;10179;42.640;23.312;2022-11-22T08:28:58;93196.53;;;11.23;47.62
20037;BME280;10179;42.640;23.312;2022-11-22T08:31:25;93190.22;;;11.25;47.48
20037;BME280;10179;42.640;23.312;2022-11-22T08:33:52;93186.56;;;11.26;47.27
20037;BME280;10179;42.640;23.312;2022-11-22T08:36:17;93179.63;;;11.19;47.29
20037;BME280;10179;42.640;23.312;2022-11-22T08:38:43;93171.19;;;11.17;47.07
20037;BME280;10179;42.640;23.312;2022-11-22T08:41:09;93146.75;;;11.00;47.24
20037;BME280;10179;42.640;23.312;2022-11-22T08:43:34;93165.22;;;11.05;47.56
20037;BME280;10179;42.640;23.312;2022-11-22T08:46:00;93151.06;;;11.06;47.78
20037;BME280;10179;42.640;23.312;2022-11-22T08:48:27;93134.97;;;11.03;48.01
20037;BME280;10179;42.640;23.312;2022-11-22T08:50:55;93136.72;;;10.97;48.38
20037;BME280;10179;42.640;23.312;2022-11-22T08:53:21;93110.31;;;10.53;48.96
20037;BME280;10179;42.640;23.312;2022-11-22T08:55:47;93113.38;;;10.67;48.83
20037;BME280;10179;42.640;23.312;2022-11-22T08:58:13;93142.75;;;10.81;49.12
20037;BME280;10179;42.640;23.312;2022-11-22T09:00:38;93090.13;;;10.42;49.29
20037;BME280;10179;42.640;23.312;2022-11-22T09:03:04;93093.72;;;10.36;49.33
20037;BME280;10179;42.640;23.312;2022-11-22T09:05:30;93035.16;;;9.90;49.65
20037;BME280;10179;42.640;23.312;2022-11-22T09:07:56;93026.66;;;9.83;50.14
20037;BME280;10179;42.640;23.312;2022-11-22T09:10:22;93154.94;;;10.53;50.20
20037;BME280;10179;42.640;23.312;2022-11-22T09:12:47;93137.34;;;10.54;50.59
20037;BME280;10179;42.640;23.312;2022-11-22T09:15:13;93127.00;;;10.47;50.68
20037;BME280;10179;42.640;23.312;2022-11-22T09:17:42;93108.97;;;10.39;50.74
20037;BME280;10179;42.640;23.312;2022-11-22T09:20:08;93137.34;;;10.54;50.95
20037;BME280;10179;42.640;23.312;2022-11-22T09:22:34;93107.06;;;10.34;50.99
20037;BME280;10179;42.640;23.312;2022-11-22T09:24:59;93064.38;;;10.10;51.30
20037;BME280;10179;42.640;23.312;2022-11-22T09:27:25;93111.22;;;10.30;51.55
20037;BME280;10179;42.640;23.312;2022-11-22T09:29:51;93133.34;;;10.51;51.81
20037;BME280;10179;42.640;23.312;2022-11-22T09:32:16;93129.69;;;10.52;51.61
20037;BME280;10179;42.640;23.312;2022-11-22T09:34:41;93069.00;;;10.20;51.94
20037;BME280;10179;42.640;23.312;2022-11-22T09:37:07;93102.25;;;10.43;51.93
20037;BME280;10179;42.640;23.312;2022-11-22T09:39:32;93100.56;;;10.37;52.20
20037;BME280;10179;42.640;23.312;2022-11-22T09:42:10;93121.28;;;10.50;52.57
20037;BME280;10179;42.640;23.312;2022-11-22T09:47:48;93118.41;;;10.51;52.79
20037;BME280;10179;42.640;23.312;2022-11-22T09:51:25;93113.94;;;10.52;52.98
20037;BME280;10179;42.640;23.312;2022-11-22T09:53:23;93017.94;;;9.94;53.00
20037;BME280;10179;42.640;23.312;2022-11-22T09:55:56;93114.44;;;10.66;52.76
20037;BME280;10179;42.640;23.312;2022-11-22T10:00:56;93099.94;;;10.63;51.86
20037;BME280;10179;42.640;23.312;2022-11-22T10:03:29;93113.06;;;10.63;51.83
20037;BME280;10179;42.640;23.312;2022-11-22T10:06:00;93112.69;;;10.55;51.49
20037;BME280;10179;42.640;23.312;2022-11-22T10:11:41;93097.25;;;10.75;51.69
20037;BME280;10179;42.640;23.312;2022-11-22T10:16:46;93084.34;;;10.73;51.06
20037;BME280;10179;42.640;23.312;2022-11-22T10:19:16;93085.06;;;10.69;51.19
20037;BME280;10179;42.640;23.312;2022-11-22T10:21:45;93034.22;;;10.41;51.18
20037;BME280;10179;42.640;23.312;2022-11-22T10:24:15;93070.19;;;10.74;51.23
20037;BME280;10179;42.640;23.312;2022-11-22T10:26:41;93018.31;;;10.48;50.82
20037;BME280;10179;42.640;23.312;2022-11-22T10:50:12;93000.72;;;11.04;50.32
20037;BME280;10179;42.640;23.312;2022-11-22T10:52:45;93034.59;;;11.22;50.45
20037;BME280;10179;42.640;23.312;2022-11-22T11:00:20;93038.88;;;11.29;50.54
20037;BME280;10179;42.640;23.312;2022-11-22T11:05:54;93025.63;;;11.62;50.21
20037;BME280;10179;42.640;23.312;2022-11-22T11:08:40;93010.69;;;11.46;50.83
20037;BME280;10179;42.640;23.312;2022-11-22T11:11:06;92938.16;;;11.01;50.41
20037;BME280;10179;42.640;23.312;2022-11-22T11:13:53;93017.22;;;11.65;50.40
20037;BME280;10179;42.640;23.312;2022-11-22T11:16:23;92757.59;;;9.82;50.51
20037;BME280;10179;42.640;23.312;2022-11-22T11:19:06;92873.75;;;10.77;50.34
20037;BME280;10179;42.640;23.312;2022-11-22T11:21:36;93023.09;;;11.73;50.43
20037;BME280;10179;42.640;23.312;2022-11-22T11:24:02;92831.19;;;10.52;50.40
20037;BME280;10179;42.640;23.312;2022-11-22T11:26:33;93032.72;;;11.84;50.31
20037;BME280;10179;42.640;23.312;2022-11-22T11:31:42;93010.63;;;11.85;49.76
20037;BME280;10179;42.640;23.312;2022-11-22T11:34:19;92958.50;;;11.60;49.89
20037;BME280;10179;42.640;23.312;2022-11-22T11:36:45;92892.03;;;11.10;49.94
20037;BME280;10179;42.640;23.312;2022-11-22T11:39:19;93005.03;;;11.81;50.02
20037;BME280;10179;42.640;23.312;2022-11-22T11:41:45;92972.53;;;11.65;50.05
20037;BME280;10179;42.640;23.312;2022-11-22T11:44:31;92899.34;;;11.08;50.15
20037;BME280;10179;42.640;23.312;2022-11-22T11:46:59;92964.72;;;11.49;50.15
20037;BME280;10179;42.640;23.312;2022-11-22T11:49:27;92960.72;;;11.46;50.24
20037;BME280;10179;42.640;23.312;2022-11-22T11:51:54;92932.75;;;11.35;50.60
20037;BME280;10179;42.640;23.312;2022-11-22T11:54:23;92946.50;;;11.42;50.56
20037;BME280;10179;42.640;23.312;2022-11-22T11:56:57;92906.34;;;11.25;50.71
20037;BME280;10179;42.640;23.312;2022-11-22T12:02:16;92968.25;;;11.59;50.88
20037;BME280;10179;42.640;23.312;2022-11-22T12:04:56;92948.91;;;11.21;50.99
20037;BME280;10179;42.640;23.312;2022-11-22T12:09:58;92959.72;;;11.25;51.63
20037;BME280;10179;42.640;23.312;2022-11-22T12:12:44;92930.53;;;11.27;51.80
20037;BME280;10179;42.640;23.312;2022-11-22T12:23:56;92903.56;;;11.09;52.32
20037;BME280;10179;42.640;23.312;2022-11-22T12:26:25;92940.22;;;11.21;52.93
20037;BME280;10179;42.640;23.312;2022-11-22T12:28:51;92932.53;;;11.14;53.23
20037;BME280;10179;42.640;23.312;2022-11-22T12:31:26;92933.56;;;11.13;53.72
20037;BME280;10179;42.640;23.312;2022-11-22T12:36:50;92919.66;;;11.13;54.31
20037;BME280;10179;42.640;23.312;2022-11-22T12:39:21;92924.09;;;11.12;54.52
20037;BME280;10179;42.640;23.312;2022-11-22T12:41:49;92940.66;;;11.13;54.80
20037;BME280;10179;42.640;23.312;2022-11-22T12:44:18;92932.22;;;11.11;55.00
20037;BME280;10179;42.640;23.312;2022-11-22T12:46:53;92938.75;;;11.08;55.25
20037;BME280;10179;42.640;23.312;2022-11-22T12:49:34;92931.91;;;11.07;55.65
20037;BME280;10179;42.640;23.312;2022-11-22T12:54:46;92917.44;;;11.05;55.91
20037;BME280;10179;42.640;23.312;2022-11-22T12:57:21;92906.00;;;10.94;56.13
20037;BME280;10179;42.640;23.312;2022-11-22T12:59:59;92923.00;;;11.08;56.51
20037;BME280;10179;42.640;23.312;2022-11-22T13:02:38;92926.78;;;11.17;56.60
20037;BME280;10179;42.640;23.312;2022-11-22T13:05:12;92932.66;;;11.25;56.80
20037;BME280;10179;42.640;23.312;2022-11-22T13:07:59;92933.63;;;11.18;56.69
20037;BME280;10179;42.640;23.312;2022-11-22T13:10:39;92918.25;;;11.32;57.04
20037;BME280;10179;42.640;23.312;2022-11-22T13:13:33;92903.16;;;11.22;57.02
20037;BME280;10179;42.640;23.312;2022-11-22T13:15:59;92909.88;;;11.35;57.24
20037;BME280;10179;42.640;23.312;2022-11-22T13:18:30;92900.94;;;11.36;57.15
20037;BME280;10179;42.640;23.312;2022-11-22T13:29:23;92901.91;;;11.52;57.81
20037;BME280;10179;42.640;23.312;2022-11-22T13:34:39;92830.13;;;11.25;57.63
20037;BME280;10179;42.640;23.312;2022-11-22T13:37:11;92877.28;;;11.63;57.56
20037;BME280;10179;42.640;23.312;2022-11-22T13:39:41;92698.28;;;9.97;57.77
20037;BME280;10179;42.640;23.312;2022-11-22T13:42:11;92574.72;;;9.72;57.95
20037;BME280;10179;42.640;23.312;2022-11-22T13:49:47;92835.63;;;11.50;58.62
20037;BME280;10179;42.640;23.312;2022-11-22T13:57:36;92876.03;;;11.71;59.25
20037;BME280;10179;42.640;23.312;2022-11-22T14:02:51;92756.88;;;11.01;59.36
20037;BME280;10179;42.640;23.312;2022-11-22T14:07:55;92861.22;;;11.60;59.86
20037;BME280;10179;42.640;23.312;2022-11-22T14:24:29;92788.22;;;11.40;60.92
20037;BME280;10179;42.640;23.312;2022-11-22T14:27:20;92832.88;;;11.72;60.45
20037;BME280;10179;42.640;23.312;2022-11-22T14:40:47;92825.19;;;11.60;60.72
20037;BME280;10179;42.640;23.312;2022-11-22T14:43:25;92815.75;;;11.64;61.00
20037;BME280;10179;42.640;23.312;2022-11-22T14:45:55;92819.94;;;11.60;60.82
20037;BME280;10179;42.640;23.312;2022-11-22T14:48:30;92676.28;;;10.74;60.88
20037;BME280;10179;42.640;23.312;2022-11-22T14:51:04;92814.66;;;11.60;60.38
20037;BME280;10179;42.640;23.312;2022-11-22T14:53:44;92822.59;;;11.65;60.73
20037;BME280;10179;42.640;23.312;2022-11-22T14:59:01;92788.06;;;11.57;60.08
20037;BME280;10179;42.640;23.312;2022-11-22T15:11:02;92809.50;;;11.76;60.17
20037;BME280;10179;42.640;23.312;2022-11-22T15:13:52;92803.94;;;11.67;59.66
20037;BME280;10179;42.640;23.312;2022-11-22T15:16:26;92710.91;;;11.04;59.52